Terminal Aerodrome Forecast
Issued by NWS

Home | Current Version | Previous Version | Text Only | Print | Product List | Glossary On
Versions: 1 2 3 4 5 6 7 8 9 10 11 12 13 14 15 16 17 18 19 20 21 22 23 24 25 26 27 28 29 30 31 32
023
FTAK31 PANC 310805 AAA
TAFACD
TAF AMD
PACD 310805Z 3108/0106 24008KT 6SM -RA BKN022 OVC030
     FM310900 17017G25KT 6SM -RA BR BKN015 OVC022
     FM311100 20020G30KT 4SM -RA BR BKN007 OVC015
     FM312100 25015G22KT P6SM -SHRA BKN030 OVC050
     FM010300 30011KT P6SM VCSH BKN050=

USA.gov is the U.S. government's official web portal to all federal, state and local government web resources and services.